Time;durP1;ratioP1;P1;durP2;ratioP2;P2;SDS_P1;SDS_P2;PMS_P1;PMS_P2;Temp;Humidity;BMP_temperature;BMP_pressure;BME280_temperature;BME280_humidity;BME280_pressure;Samples;Min_cycle;Max_cycle;Signal;HPM_P1;HPM_P2
2021/10/16 00:01:47;;;;;;;4.82;3.90;;;;;;;11.60;88.95;99780.25;5092901;28;20206;-73
2021/10/16 00:04:13;;;;;;;4.80;4.30;;;;;;;11.52;89.66;99780.72;5093227;28;20594;-73
2021/10/16 00:06:40;;;;;;;6.57;4.63;;;;;;;11.67;88.98;99781.66;5092832;28;20267;-73
2021/10/16 00:09:07;;;;;;;4.72;4.18;;;;;;;11.57;89.22;99772.38;5092738;28;20283;-73
2021/10/16 00:11:33;;;;;;;5.03;4.53;;;;;;;11.49;89.93;99778.22;5092670;28;20206;-73
2021/10/16 00:14:00;;;;;;;4.50;4.03;;;;;;;11.31;90.76;99772.09;5091758;28;20267;-73
2021/10/16 00:16:28;;;;;;;6.30;4.28;;;;;;;11.47;90.22;99775.63;5081049;28;20193;-73
2021/10/16 00:18:55;;;;;;;5.60;4.45;;;;;;;11.54;89.48;99775.25;5086078;28;20200;-74
2021/10/16 00:21:21;;;;;;;8.63;5.47;;;;;;;11.58;89.23;99774.13;5086468;28;20270;-73
2021/10/16 00:23:48;;;;;;;7.85;5.82;;;;;;;11.60;88.95;99777.56;5088186;28;20196;-73
2021/10/16 00:26:15;;;;;;;5.68;4.70;;;;;;;11.51;88.88;99778.13;5089303;28;20645;-73
2021/10/16 00:28:41;;;;;;;4.75;4.10;;;;;;;11.37;89.81;99778.94;5091662;28;20223;-73
2021/10/16 00:31:08;;;;;;;6.60;4.80;;;;;;;11.18;91.21;99777.31;5078120;28;20200;-73
2021/10/16 00:33:37;;;;;;;6.38;5.07;;;;;;;11.33;91.38;99772.88;5076518;28;20176;-73
2021/10/16 00:36:03;;;;;;;7.30;5.32;;;;;;;11.31;91.50;99779.31;5083331;28;20205;-73
2021/10/16 00:38:30;;;;;;;7.93;4.45;;;;;;;11.35;91.32;99778.16;5073735;28;20216;-73
2021/10/16 00:40:57;;;;;;;6.63;5.32;;;;;;;11.51;90.60;99772.72;5083856;28;20197;-73
2021/10/16 00:43:23;;;;;;;5.53;4.60;;;;;;;11.67;88.23;99774.44;5073920;28;20205;-73
2021/10/16 00:45:50;;;;;;;5.53;5.00;;;;;;;11.56;88.69;99773.34;5092248;28;20645;-73
2021/10/16 00:48:16;;;;;;;5.40;4.90;;;;;;;11.43;89.11;99771.34;5085833;28;20279;-73
2021/10/16 00:50:44;;;;;;;7.00;5.32;;;;;;;11.47;88.52;99781.00;5078125;28;20196;-73
2021/10/16 00:53:12;;;;;;;5.70;4.72;;;;;;;11.53;88.58;99777.06;5092571;28;20638;-73
2021/10/16 00:55:40;;;;;;;6.90;5.20;;;;;;;11.44;89.16;99775.81;5090163;28;20192;-73
2021/10/16 00:58:06;;;;;;;6.80;4.68;;;;;;;11.35;89.13;99778.16;5091419;28;20208;-73
2021/10/16 01:00:33;;;;;;;5.25;4.85;;;;;;;11.28;90.15;99777.63;5074407;28;20928;-73
2021/10/16 01:03:01;;;;;;;5.60;5.05;;;;;;;11.21;90.57;99773.56;5072030;28;20189;-73
2021/10/16 01:05:28;;;;;;;6.53;5.63;;;;;;;10.89;93.63;99775.41;5072023;28;20185;-73
2021/10/16 01:07:56;;;;;;;6.00;5.40;;;;;;;10.74;96.10;99774.44;5071976;28;20207;-73
2021/10/16 01:10:23;;;;;;;8.38;5.20;;;;;;;10.69;97.19;99768.47;5078686;28;20184;-73
2021/10/16 01:12:50;;;;;;;6.38;4.95;;;;;;;10.56;97.96;99776.34;5091493;28;20196;-72
2021/10/16 01:15:17;;;;;;;9.60;5.88;;;;;;;10.54;99.23;99770.19;5090021;28;20196;-72
2021/10/16 01:17:46;;;;;;;7.38;5.57;;;;;;;10.69;98.18;99772.00;5090376;28;20293;-72
2021/10/16 01:20:15;;;;;;;5.97;5.38;;;;;;;10.65;97.45;99767.78;5086569;28;20939;-72
2021/10/16 01:22:44;;;;;;;6.70;5.88;;;;;;;10.53;98.68;99765.75;5082089;28;20235;-72
2021/10/16 01:25:13;;;;;;;9.90;6.30;;;;;;;10.64;97.97;99761.50;5082413;28;20196;-72
2021/10/16 01:27:40;;;;;;;8.27;5.95;;;;;;;10.70;95.98;99764.81;5094354;28;20199;-72
2021/10/16 01:30:09;;;;;;;6.90;6.30;;;;;;;10.33;98.45;99759.63;5079669;28;20719;-73
2021/10/16 01:32:36;;;;;;;5.95;5.43;;;;;;;10.10;100.00;99763.53;5095266;28;20176;-73
2021/10/16 01:35:04;;;;;;;6.45;5.85;;;;;;;9.99;100.00;99757.84;5095532;28;20196;-73
2021/10/16 01:37:30;;;;;;;8.73;6.32;;;;;;;9.84;100.00;99756.88;5095188;28;20223;-73
2021/10/16 01:39:58;;;;;;;7.82;7.00;;;;;;;9.79;100.00;99750.84;5093926;28;20183;-72
2021/10/16 01:42:25;;;;;;;8.00;6.68;;;;;;;9.57;100.00;99751.97;5094218;28;20648;-73
2021/10/16 01:44:52;;;;;;;8.68;6.30;;;;;;;9.53;100.00;99746.84;5095517;28;20191;-72
2021/10/16 01:47:18;;;;;;;8.88;6.80;;;;;;;9.43;100.00;99742.84;5091839;28;20644;-72
2021/10/16 01:49:45;;;;;;;6.75;5.72;;;;;;;9.70;100.00;99737.88;5095112;28;20191;-72
2021/10/16 01:52:11;;;;;;;7.93;6.10;;;;;;;9.68;100.00;99739.78;5094332;28;20187;-74
2021/10/16 01:54:38;;;;;;;7.35;6.35;;;;;;;9.63;100.00;99741.84;5075189;28;20201;-74
2021/10/16 01:57:06;;;;;;;7.40;6.25;;;;;;;9.64;100.00;99735.53;5076420;28;20597;-73
2021/10/16 01:59:34;;;;;;;6.75;5.93;;;;;;;9.25;100.00;99744.66;5075360;28;20675;-72
2021/10/16 02:02:01;;;;;;;7.60;6.65;;;;;;;9.32;100.00;99744.28;5075420;28;20272;-72
2021/10/16 02:04:28;;;;;;;6.50;5.88;;;;;;;9.25;100.00;99744.66;5075623;28;20191;-72
2021/10/16 02:06:54;;;;;;;8.38;6.65;;;;;;;9.21;100.00;99749.34;5093658;28;20202;-72
2021/10/16 02:09:21;;;;;;;7.68;6.90;;;;;;;9.07;100.00;99744.66;5092391;28;20652;-72
2021/10/16 02:11:47;;;;;;;7.50;6.70;;;;;;;8.95;100.00;99746.13;5094867;28;20242;-73
2021/10/16 02:14:15;;;;;;;9.15;6.38;;;;;;;8.91;100.00;99743.66;5094626;28;20607;-73
2021/10/16 02:16:42;;;;;;;7.68;6.88;;;;;;;8.95;100.00;99743.44;5074687;28;20195;-72
2021/10/16 02:19:08;;;;;;;10.55;7.82;;;;;;;9.07;100.00;99743.78;5075027;28;20207;-73
2021/10/16 02:21:35;;;;;;;11.32;7.40;;;;;;;9.01;100.00;99744.94;5078404;28;20280;-74
2021/10/16 02:24:02;;;;;;;8.90;6.65;;;;;;;9.20;100.00;99755.63;5092911;28;20194;-73
2021/10/16 02:26:28;;;;;;;8.63;7.50;;;;;;;8.91;100.00;99747.22;5084238;28;20206;-73
2021/10/16 02:28:55;;;;;;;13.95;8.07;;;;;;;8.82;100.00;99755.72;5086988;28;20314;-75
2021/10/16 02:31:23;;;;;;;9.65;7.40;;;;;;;8.96;100.00;99747.00;5085019;28;20207;-72
2021/10/16 02:33:50;;;;;;;8.68;6.95;;;;;;;9.11;100.00;99740.88;5077788;28;20187;-72
2021/10/16 02:36:17;;;;;;;11.60;7.45;;;;;;;9.21;100.00;99740.41;5086395;28;20566;-73
2021/10/16 02:38:44;;;;;;;7.70;6.82;;;;;;;9.18;100.00;99744.13;5079740;28;20676;-72
2021/10/16 02:41:11;;;;;;;8.50;6.60;;;;;;;9.17;100.00;99747.75;5094329;28;20534;-72
2021/10/16 02:43:38;;;;;;;10.50;7.03;;;;;;;9.10;100.00;99747.19;5093714;28;20195;-73
2021/10/16 02:46:05;;;;;;;9.60;7.28;;;;;;;9.13;100.00;99743.47;5092019;28;20192;-72
2021/10/16 02:48:33;;;;;;;10.57;8.07;;;;;;;9.20;100.00;99747.56;5074515;28;20291;-74
2021/10/16 02:51:00;;;;;;;9.45;7.95;;;;;;;9.22;100.00;99752.88;5081546;28;20204;-73
2021/10/16 02:53:26;;;;;;;8.40;7.10;;;;;;;9.11;100.00;99756.09;5082920;28;20197;-73
2021/10/16 02:55:53;;;;;;;7.88;7.07;;;;;;;9.12;100.00;99753.34;5073964;28;20199;-72
2021/10/16 02:58:19;;;;;;;7.88;7.07;;;;;;;9.17;100.00;99753.97;5092320;28;20236;-73
2021/10/16 03:00:46;;;;;;;8.85;7.85;;;;;;;9.04;100.00;99760.91;5083510;28;20226;-72
2021/10/16 03:03:13;;;;;;;8.88;7.55;;;;;;;9.10;100.00;99759.75;5089101;28;20196;-72
2021/10/16 03:05:40;;;;;;;8.60;7.50;;;;;;;9.45;100.00;99765.16;5089888;28;20198;-75
2021/10/16 03:08:07;;;;;;;9.20;8.23;;;;;;;9.61;99.75;99763.44;5085206;28;20195;-73
2021/10/16 03:10:34;;;;;;;10.00;7.50;;;;;;;9.61;98.39;99766.13;5073987;28;20203;-73
2021/10/16 03:13:00;;;;;;;10.27;7.40;;;;;;;9.52;98.64;99766.56;5074379;28;20503;-73
2021/10/16 03:15:27;;;;;;;10.75;7.85;;;;;;;9.72;96.91;99762.88;5083237;28;20553;-73
2021/10/16 03:17:53;;;;;;;11.60;7.90;;;;;;;9.71;95.36;99770.06;5092062;28;20311;-71
2021/10/16 03:20:20;;;;;;;7.95;7.13;;;;;;;9.62;96.02;99767.00;5093446;28;20189;-72
2021/10/16 03:22:48;;;;;;;9.32;7.82;;;;;;;9.36;97.68;99772.75;5077183;28;20192;-72
2021/10/16 03:25:15;;;;;;;8.55;7.75;;;;;;;9.28;99.50;99772.25;5089680;28;20198;-73
2021/10/16 03:27:41;;;;;;;10.90;8.00;;;;;;;9.48;98.99;99770.41;5074211;28;20623;-73
2021/10/16 03:30:09;;;;;;;9.70;8.70;;;;;;;9.53;98.08;99779.09;5090838;28;20262;-72
2021/10/16 03:32:35;;;;;;;8.82;7.07;;;;;;;9.65;96.29;99773.06;5085514;28;20535;-72
2021/10/16 03:35:02;;;;;;;9.55;8.60;;;;;;;9.75;94.97;99765.41;5073866;28;20545;-73
2021/10/16 03:37:29;;;;;;;8.38;7.35;;;;;;;9.89;93.66;99770.94;5092466;28;20190;-73
2021/10/16 03:39:56;;;;;;;9.70;7.68;;;;;;;10.01;91.84;99770.28;5093008;28;20197;-72
2021/10/16 03:42:23;;;;;;;9.00;8.10;;;;;;;9.88;91.87;99758.44;5092294;28;20597;-73
2021/10/16 03:44:50;;;;;;;7.70;6.82;;;;;;;9.61;94.92;99766.13;5093184;28;20184;-72
2021/10/16 03:47:16;;;;;;;9.57;7.70;;;;;;;9.52;95.21;99762.09;5080148;28;20188;-72
2021/10/16 03:49:43;;;;;;;9.85;7.68;;;;;;;9.51;95.95;99762.16;5073436;28;20189;-72
2021/10/16 03:52:09;;;;;;;9.90;8.23;;;;;;;9.58;96.29;99756.38;5087725;28;20292;-72
2021/10/16 03:54:36;;;;;;;8.30;7.40;;;;;;;9.73;94.59;99760.09;5075075;28;20603;-73
2021/10/16 03:57:04;;;;;;;14.07;8.80;;;;;;;9.62;94.96;99754.41;5083386;28;20200;-72
2021/10/16 03:59:31;;;;;;;10.82;7.95;;;;;;;9.79;93.78;99754.41;5074340;28;20668;-72
2021/10/16 04:01:58;;;;;;;11.10;9.27;;;;;;;9.77;93.59;99750.06;5092105;28;20192;-72
2021/10/16 04:04:25;;;;;;;11.55;7.60;;;;;;;9.89;92.02;99751.25;5092313;28;20265;-72
2021/10/16 04:06:51;;;;;;;11.18;8.50;;;;;;;9.87;92.14;99750.44;5079197;28;20274;-73
2021/10/16 04:09:18;;;;;;;8.43;7.40;;;;;;;9.82;92.37;99751.56;5088396;28;20189;-72
2021/10/16 04:11:45;;;;;;;9.55;8.38;;;;;;;9.83;92.57;99752.41;5078214;28;20197;-73
2021/10/16 04:14:13;;;;;;;9.45;8.32;;;;;;;9.92;92.22;99761.81;5072749;28;20193;-73
2021/10/16 04:16:39;;;;;;;11.73;10.68;;;;;;;9.92;92.30;99749.25;5091788;28;20192;-73
2021/10/16 04:19:06;;;;;;;9.65;8.52;;;;;;;9.71;93.42;99747.69;5073089;28;20207;-73
2021/10/16 04:21:32;;;;;;;9.40;8.32;;;;;;;9.59;93.41;99758.13;5077397;28;20206;-73
2021/10/16 04:24:00;;;;;;;12.98;9.30;;;;;;;9.55;95.00;99761.94;5089693;28;20298;-73
2021/10/16 04:26:27;;;;;;;9.98;8.98;;;;;;;9.57;94.23;99754.66;5079254;28;20229;-72
2021/10/16 04:28:53;;;;;;;13.93;8.98;;;;;;;9.69;93.93;99766.59;5086570;28;20322;-73
2021/10/16 04:31:21;;;;;;;15.60;8.90;;;;;;;9.70;93.42;99770.13;5091020;28;20561;-72
2021/10/16 04:33:48;;;;;;;11.57;8.95;;;;;;;9.56;93.85;99762.78;5091552;28;20281;-72
2021/10/16 04:36:15;;;;;;;11.25;8.20;;;;;;;9.58;94.86;99760.88;5086577;28;20191;-74
2021/10/16 04:38:45;;;;;;;12.15;8.77;;;;;;;9.34;94.83;99774.66;5082903;28;20230;-73
2021/10/16 04:41:12;;;;;;;9.85;8.85;;;;;;;9.24;96.77;99775.19;5091340;28;20195;-74
2021/10/16 04:43:41;;;;;;;10.50;8.30;;;;;;;9.17;96.97;99769.22;5081076;28;20205;-74
2021/10/16 04:46:08;;;;;;;11.20;8.95;;;;;;;9.26;97.13;99771.47;5081472;28;20200;-73
2021/10/16 04:48:37;;;;;;;13.60;8.55;;;;;;;9.15;96.81;99773.81;5091975;28;20192;-74
2021/10/16 04:51:05;;;;;;;17.33;9.30;;;;;;;9.16;97.26;99773.75;5089223;28;20226;-73
2021/10/16 04:53:31;;;;;;;10.20;8.63;;;;;;;9.16;96.51;99767.50;5085698;28;20547;-74
2021/10/16 04:55:58;;;;;;;10.35;9.25;;;;;;;9.30;96.16;99770.38;5076130;28;20546;-73
2021/10/16 04:58:25;;;;;;;9.98;8.10;;;;;;;9.38;95.79;99765.50;5082687;28;20266;-73
2021/10/16 05:00:51;;;;;;;12.20;8.52;;;;;;;9.47;93.81;99774.00;5074482;28;20299;-73
2021/10/16 05:03:18;;;;;;;12.10;9.00;;;;;;;9.70;93.01;99759.38;5080750;28;20201;-74
2021/10/16 05:05:46;;;;;;;9.32;8.43;;;;;;;9.87;91.15;99769.28;5071991;28;20201;-74
2021/10/16 05:08:13;;;;;;;12.32;8.60;;;;;;;9.91;89.24;99768.16;5071678;28;20219;-74
2021/10/16 05:10:39;;;;;;;10.02;7.60;;;;;;;9.99;88.38;99758.75;5075699;28;20198;-74
2021/10/16 05:13:06;;;;;;;13.88;8.93;;;;;;;10.08;88.18;99768.13;5085445;28;20215;-73
2021/10/16 05:15:33;;;;;;;10.65;8.68;;;;;;;10.11;88.32;99770.66;5072254;28;20196;-73
2021/10/16 05:17:59;;;;;;;13.50;8.95;;;;;;;10.12;87.62;99763.47;5080137;28;20247;-72
2021/10/16 05:20:26;;;;;;;10.23;8.15;;;;;;;10.00;87.69;99773.94;5081762;28;20569;-72
2021/10/16 05:22:54;;;;;;;10.30;8.65;;;;;;;10.01;87.36;99764.03;5090440;28;20206;-73
2021/10/16 05:25:21;;;;;;;12.43;9.25;;;;;;;9.85;88.49;99757.72;5089534;28;20187;-72
2021/10/16 05:27:49;;;;;;;30.50;27.25;;;;;;;9.46;91.12;99759.72;5081094;28;20194;-73
2021/10/16 05:30:16;;;;;;;12.05;9.70;;;;;;;9.60;90.81;99756.31;5091555;28;20310;-72
2021/10/16 05:32:42;;;;;;;12.98;9.65;;;;;;;9.52;90.59;99761.19;5075077;28;20194;-73
2021/10/16 05:35:09;;;;;;;11.38;10.13;;;;;;;9.39;92.17;99761.84;5071359;28;20189;-71
2021/10/16 05:37:36;;;;;;;10.38;9.20;;;;;;;9.19;94.04;99770.03;5083377;28;20195;-73
2021/10/16 05:40:04;;;;;;;12.23;10.63;;;;;;;9.13;95.22;99767.63;5076704;28;20227;-72
2021/10/16 05:42:31;;;;;;;10.43;9.18;;;;;;;8.86;97.02;99770.72;5075821;28;20209;-72
2021/10/16 05:45:01;;;;;;;12.32;10.07;;;;;;;8.88;98.32;99776.91;5089534;28;20640;-72
2021/10/16 05:47:27;;;;;;;14.40;10.93;;;;;;;8.67;99.35;99773.44;5091430;28;20279;-72
2021/10/16 05:49:54;;;;;;;13.13;10.57;;;;;;;8.72;99.80;99770.53;5091274;28;20179;-73
2021/10/16 05:52:20;;;;;;;17.65;11.10;;;;;;;8.87;99.00;99777.84;5089341;28;20213;-73
2021/10/16 05:54:47;;;;;;;17.20;10.50;;;;;;;8.71;99.61;99775.03;5071766;28;20277;-73
2021/10/16 05:57:15;;;;;;;13.10;10.05;;;;;;;8.71;99.88;99771.50;5075866;28;20186;-73
2021/10/16 05:59:42;;;;;;;13.98;11.10;;;;;;;8.60;100.00;99774.66;5087828;28;20206;-73
2021/10/16 06:02:09;;;;;;;12.90;10.18;;;;;;;8.64;100.00;99781.63;5071824;28;20205;-74
2021/10/16 06:04:36;;;;;;;13.70;10.60;;;;;;;8.76;99.49;99781.03;5081609;28;20206;-73
2021/10/16 06:07:03;;;;;;;20.30;11.02;;;;;;;8.74;98.69;99784.75;5097360;28;20202;-73
2021/10/16 06:09:29;;;;;;;12.57;10.45;;;;;;;8.81;98.45;99788.00;5087806;28;20178;-73
2021/10/16 06:11:56;;;;;;;13.70;10.02;;;;;;;8.76;98.67;99782.88;5091234;28;20704;-72
2021/10/16 06:14:24;;;;;;;13.27;10.40;;;;;;;8.60;98.94;99785.41;5092407;28;20229;-74
2021/10/16 06:16:50;;;;;;;15.35;11.23;;;;;;;8.46;99.98;99796.78;5090239;28;20190;-72
2021/10/16 06:19:18;;;;;;;15.82;10.68;;;;;;;8.39;100.00;99789.03;5095174;28;20224;-73
2021/10/16 06:21:45;;;;;;;17.60;11.15;;;;;;;8.28;100.00;99797.59;5089579;28;20588;-72
2021/10/16 06:24:12;;;;;;;16.70;11.85;;;;;;;8.37;100.00;99797.19;5075516;28;20197;-72
2021/10/16 06:26:39;;;;;;;15.98;11.07;;;;;;;8.59;100.00;99804.25;5090225;28;20245;-73
2021/10/16 06:29:06;;;;;;;16.17;11.00;;;;;;;8.43;100.00;99802.28;5112473;28;20309;-72
2021/10/16 06:31:34;;;;;;;15.23;11.45;;;;;;;8.53;99.54;99803.59;5108138;28;20186;-73
2021/10/16 06:34:01;;;;;;;14.82;10.55;;;;;;;8.66;98.41;99803.91;5114712;28;20209;-74
2021/10/16 06:36:27;;;;;;;15.38;11.70;;;;;;;8.58;98.40;99816.81;5114894;28;20192;-73
2021/10/16 06:38:54;;;;;;;17.27;12.45;;;;;;;8.56;98.66;99818.69;5114434;28;20296;-72
2021/10/16 06:41:21;;;;;;;13.32;11.07;;;;;;;8.51;99.02;99810.84;5114729;28;20205;-72
2021/10/16 06:43:47;;;;;;;16.40;11.23;;;;;;;8.51;98.19;99815.34;5109404;28;20539;-72
2021/10/16 06:46:14;;;;;;;15.00;11.55;;;;;;;8.71;96.97;99823.34;5094580;28;20209;-73
2021/10/16 06:48:42;;;;;;;13.85;11.60;;;;;;;8.74;96.25;99817.84;5094421;28;20359;-73
2021/10/16 06:51:08;;;;;;;13.45;11.35;;;;;;;8.47;96.74;99817.31;5093928;28;20227;-74
2021/10/16 06:53:35;;;;;;;16.30;11.23;;;;;;;8.30;99.59;99825.25;5094178;28;20758;-72
2021/10/16 06:56:02;;;;;;;15.32;11.05;;;;;;;8.35;99.83;99828.56;5094204;28;20191;-72
2021/10/16 06:58:28;;;;;;;18.23;11.23;;;;;;;8.25;99.76;99822.72;5086362;28;20211;-73
2021/10/16 07:00:55;;;;;;;16.13;10.90;;;;;;;8.35;99.36;99826.75;5078504;28;20213;-74
2021/10/16 07:03:22;;;;;;;17.40;12.43;;;;;;;8.31;99.93;99826.97;5093649;28;20217;-75
2021/10/16 07:05:50;;;;;;;18.80;12.77;;;;;;;8.53;99.30;99825.09;5081319;28;20201;-72
2021/10/16 07:08:16;;;;;;;14.55;11.13;;;;;;;8.58;97.68;99826.69;5074291;28;20272;-72
2021/10/16 07:10:43;;;;;;;15.88;10.82;;;;;;;8.67;97.25;99826.25;5076012;28;20282;-73
2021/10/16 07:13:10;;;;;;;16.77;11.98;;;;;;;8.87;95.27;99834.25;5074217;28;20554;-73
2021/10/16 07:15:37;;;;;;;14.85;10.30;;;;;;;8.78;94.78;99829.31;5077772;28;20200;-73
2021/10/16 07:18:04;;;;;;;14.55;11.18;;;;;;;8.72;94.59;99833.13;5091362;28;20388;-73
2021/10/16 07:20:31;;;;;;;16.73;10.82;;;;;;;8.73;95.32;99826.84;5088735;28;20292;-74
2021/10/16 07:22:59;;;;;;;15.48;11.68;;;;;;;8.85;94.08;99836.13;5075719;28;20244;-73
2021/10/16 07:25:25;;;;;;;16.42;10.95;;;;;;;8.88;93.71;99841.34;5073202;28;20195;-73
2021/10/16 07:27:54;;;;;;;14.10;10.10;;;;;;;9.00;93.18;99839.91;5072532;28;20187;-74
2021/10/16 07:30:21;;;;;;;14.82;11.65;;;;;;;9.00;92.50;99833.66;5072727;28;20236;-73
2021/10/16 07:32:48;;;;;;;14.02;11.25;;;;;;;8.98;92.11;99848.03;5073937;28;20722;-72
2021/10/16 07:35:15;;;;;;;13.20;9.30;;;;;;;9.05;92.41;99850.44;5072672;28;20263;-74
2021/10/16 07:37:42;;;;;;;17.63;11.43;;;;;;;9.22;91.32;99850.47;5091484;28;20289;-72
2021/10/16 07:40:11;;;;;;;14.32;10.20;;;;;;;9.09;91.68;99849.31;5080748;28;20218;-73
2021/10/16 07:42:38;;;;;;;15.48;9.45;;;;;;;9.12;91.73;99850.06;5082227;28;20595;-73
2021/10/16 07:45:05;;;;;;;15.15;10.00;;;;;;;9.32;90.09;99850.91;5090890;28;20196;-74
2021/10/16 07:47:32;;;;;;;9.38;8.38;;;;;;;9.36;89.73;99849.78;5093041;28;20202;-73
2021/10/16 07:49:58;;;;;;;14.30;9.82;;;;;;;9.49;88.43;99858.13;5092633;28;20191;-74
2021/10/16 07:52:25;;;;;;;12.00;9.60;;;;;;;9.43;88.12;99858.44;5083535;28;20607;-73
2021/10/16 07:54:52;;;;;;;16.85;10.38;;;;;;;9.42;89.12;99859.38;5083983;28;20313;-73
2021/10/16 07:57:21;;;;;;;15.63;9.77;;;;;;;9.52;88.69;99861.56;5072210;28;20192;-74
2021/10/16 07:59:48;;;;;;;12.70;9.05;;;;;;;9.75;87.07;99862.22;5085929;28;20237;-72
2021/10/16 08:02:14;;;;;;;11.65;8.88;;;;;;;9.89;86.58;99861.50;5092839;28;20198;-74
2021/10/16 08:04:41;;;;;;;14.15;8.70;;;;;;;10.20;84.63;99860.81;5092677;28;20192;-73
2021/10/16 08:07:08;;;;;;;13.52;8.82;;;;;;;10.03;84.41;99864.34;5092718;28;20637;-72
2021/10/16 08:09:34;;;;;;;12.52;8.27;;;;;;;10.34;82.90;99865.50;5092452;28;20282;-72
2021/10/16 08:12:01;;;;;;;10.57;8.85;;;;;;;10.61;81.34;99866.69;5088426;28;20652;-72
2021/10/16 08:14:29;;;;;;;9.63;7.75;;;;;;;10.89;79.62;99862.50;5092699;28;20212;-73
2021/10/16 08:16:55;;;;;;;12.70;9.32;;;;;;;10.67;80.73;99859.22;5092246;28;20207;-73
2021/10/16 08:19:22;;;;;;;11.90;7.60;;;;;;;10.92;79.46;99867.72;5092393;28;20223;-73
2021/10/16 08:21:49;;;;;;;10.90;7.80;;;;;;;11.16;77.63;99868.16;5092099;28;20554;-73
2021/10/16 08:24:15;;;;;;;11.60;7.47;;;;;;;10.95;79.15;99864.00;5092404;28;20537;-73
2021/10/16 08:26:42;;;;;;;13.40;8.35;;;;;;;11.17;78.36;99866.34;5092155;28;20592;-74
2021/10/16 08:29:09;;;;;;;9.73;7.20;;;;;;;10.74;79.94;99860.63;5092008;28;20556;-73
2021/10/16 08:31:37;;;;;;;11.23;8.35;;;;;;;10.84;79.83;99859.19;5091816;28;20274;-72
2021/10/16 08:34:04;;;;;;;10.52;8.07;;;;;;;10.88;79.48;99863.47;5092492;28;20642;-72
2021/10/16 08:36:30;;;;;;;10.40;7.85;;;;;;;11.21;78.58;99859.81;5091376;28;20279;-73
2021/10/16 08:38:57;;;;;;;10.18;7.57;;;;;;;11.29;78.11;99864.78;5091801;28;20218;-74
2021/10/16 08:41:24;;;;;;;8.05;6.80;;;;;;;11.53;76.92;99855.28;5091038;28;20637;-73
2021/10/16 08:43:50;;;;;;;10.45;7.45;;;;;;;11.38;77.35;99862.44;5090746;28;20586;-74
2021/10/16 08:46:17;;;;;;;9.07;7.60;;;;;;;11.57;77.28;99866.75;5080378;28;20283;-73
2021/10/16 08:48:45;;;;;;;9.85;8.75;;;;;;;11.41;76.75;99864.94;5088956;28;20198;-72
2021/10/16 08:51:12;;;;;;;8.10;7.30;;;;;;;10.90;79.71;99861.56;5091817;28;20278;-72
2021/10/16 08:53:39;;;;;;;10.57;8.20;;;;;;;11.22;79.30;99856.19;5091260;28;20275;-72
2021/10/16 08:56:07;;;;;;;10.82;8.45;;;;;;;11.47;78.75;99859.22;5091814;28;20227;-72
2021/10/16 08:58:34;;;;;;;10.18;8.80;;;;;;;11.67;77.22;99859.88;5091376;28;20224;-72
2021/10/16 09:01:02;;;;;;;13.20;8.70;;;;;;;11.75;77.15;99859.44;5091600;28;20203;-72
2021/10/16 09:03:30;;;;;;;12.13;9.10;;;;;;;11.67;77.16;99851.78;5092070;28;20184;-72
2021/10/16 09:06:01;;;;;;;10.32;7.85;;;;;;;11.96;75.74;99857.31;5092218;28;20282;-72
2021/10/16 09:08:29;;;;;;;9.63;8.10;;;;;;;11.98;75.53;99858.09;5091619;28;20192;-73
2021/10/16 09:11:11;;;;;;;15.75;10.70;;;;;;;12.10;75.34;99855.53;5089388;28;20292;-72
2021/10/16 09:13:45;;;;;;;12.30;8.00;;;;;;;12.23;75.16;99852.97;5082951;28;20272;-74
2021/10/16 09:16:33;;;;;;;12.75;8.35;;;;;;;12.02;75.69;99852.41;5088763;28;20275;-73
2021/10/16 09:19:08;;;;;;;9.40;8.40;;;;;;;12.01;76.29;99849.81;5085893;28;20194;-73
2021/10/16 09:21:38;;;;;;;10.85;9.05;;;;;;;12.35;75.26;99859.44;5089799;28;20214;-73
2021/10/16 09:24:17;;;;;;;13.77;9.85;;;;;;;12.49;74.76;99850.47;5082882;28;20637;-72
2021/10/16 09:26:45;;;;;;;11.25;7.85;;;;;;;12.32;75.42;99848.81;5091282;28;20194;-73
2021/10/16 09:29:15;;;;;;;12.80;9.90;;;;;;;12.34;75.54;99857.69;5090329;28;20315;-73
2021/10/16 09:31:43;;;;;;;10.60;9.52;;;;;;;12.49;75.58;99847.78;5091752;28;20195;-73
2021/10/16 09:34:10;;;;;;;14.93;10.18;;;;;;;12.80;73.37;99845.84;5092077;28;20196;-74
2021/10/16 09:36:42;;;;;;;10.27;8.30;;;;;;;12.95;72.58;99847.56;5092184;28;20537;-73
2021/10/16 09:39:16;;;;;;;13.57;9.75;;;;;;;13.07;72.54;99841.41;5091554;28;20245;-72
2021/10/16 09:41:42;;;;;;;15.25;10.40;;;;;;;13.29;71.58;99840.88;5091798;28;20186;-74
2021/10/16 09:44:21;;;;;;;14.43;11.10;;;;;;;13.22;71.22;99841.34;5093162;28;20278;-73
2021/10/16 09:46:58;;;;;;;10.98;9.88;;;;;;;13.45;70.86;99843.44;5093527;28;20197;-73
2021/10/16 09:49:29;;;;;;;10.10;7.95;;;;;;;13.83;68.90;99834.59;5080744;28;20273;-71
2021/10/16 09:51:58;;;;;;;7.80;7.07;;;;;;;14.01;68.18;99828.91;5089134;28;20198;-73
2021/10/16 09:54:24;;;;;;;9.65;7.85;;;;;;;14.01;67.86;99826.19;5088219;28;20620;-73
2021/10/16 09:56:51;;;;;;;7.90;7.15;;;;;;;14.00;67.91;99824.44;5092198;28;20189;-73
2021/10/16 09:59:20;;;;;;;10.15;7.80;;;;;;;14.15;67.56;99826.09;5078315;28;20199;-74
2021/10/16 10:01:47;;;;;;;8.77;7.53;;;;;;;14.39;66.73;99816.25;5095248;28;20582;-74
2021/10/16 10:04:17;;;;;;;9.90;8.90;;;;;;;14.37;66.66;99820.91;5094316;28;20190;-74
2021/10/16 10:06:45;;;;;;;8.32;6.78;;;;;;;14.55;66.08;99826.91;5086217;28;20217;-73
2021/10/16 10:09:14;;;;;;;8.38;6.85;;;;;;;14.67;65.36;99817.03;5093194;28;20193;-73
2021/10/16 10:11:45;;;;;;;8.35;7.28;;;;;;;14.62;65.99;99819.22;5086108;28;20560;-72
2021/10/16 10:14:13;;;;;;;8.95;7.68;;;;;;;14.86;65.71;99813.88;5094392;28;20617;-74
2021/10/16 10:16:40;;;;;;;10.45;8.43;;;;;;;14.89;65.76;99815.50;5079528;28;20200;-72
2021/10/16 10:19:07;;;;;;;7.63;6.78;;;;;;;14.90;65.60;99809.97;5094163;28;20188;-73
2021/10/16 10:21:36;;;;;;;10.15;8.80;;;;;;;15.23;64.41;99806.63;5073991;28;20225;-74
2021/10/16 10:24:05;;;;;;;8.30;6.93;;;;;;;15.63;62.76;99809.06;5088704;28;20199;-73
2021/10/16 10:26:35;;;;;;;9.60;8.70;;;;;;;15.78;61.99;99807.06;5092538;28;20713;-74
2021/10/16 10:29:04;;;;;;;6.97;5.60;;;;;;;15.39;63.29;99800.06;5092463;28;20269;-73
2021/10/16 10:31:59;;;;;;;8.57;7.28;;;;;;;14.94;65.46;99803.34;5089324;28;20191;-72
2021/10/16 10:34:32;;;;;;;6.63;5.93;;;;;;;15.29;63.89;99796.31;5061752;28;20639;-73
2021/10/16 10:37:06;;;;;;;7.93;6.85;;;;;;;15.66;62.92;99797.09;5074895;28;20188;-74
2021/10/16 10:39:44;;;;;;;8.85;6.82;;;;;;;15.52;63.09;99789.16;5087516;28;20250;-73
2021/10/16 10:42:46;;;;;;;7.28;6.35;;;;;;;15.26;63.70;99791.94;5081888;28;20195;-74
2021/10/16 10:45:43;;;;;;;7.50;6.70;;;;;;;15.34;63.00;99788.69;5086418;28;20244;-74
2021/10/16 10:48:15;;;;;;;7.40;5.88;;;;;;;15.34;61.81;99796.81;5089354;28;20225;-73
2021/10/16 10:51:05;;;;;;;7.05;6.35;;;;;;;15.32;62.18;99790.66;5092699;28;20194;-73
2021/10/16 10:53:38;;;;;;;7.35;5.97;;;;;;;14.80;64.29;99787.22;5073194;28;20276;-74
2021/10/16 10:56:08;;;;;;;6.22;5.63;;;;;;;14.33;66.49;99780.63;5073811;28;20598;-73
2021/10/16 10:58:58;;;;;;;8.63;6.00;;;;;;;14.46;66.58;99783.34;5072202;28;20298;-74
2021/10/16 11:01:53;;;;;;;6.00;5.40;;;;;;;14.68;65.34;99790.81;5073391;28;20206;-72
2021/10/16 11:04:45;;;;;;;6.70;6.10;;;;;;;15.02;63.88;99781.09;5089523;28;20210;-73
2021/10/16 11:07:14;;;;;;;7.55;5.00;;;;;;;14.77;65.00;99784.75;5092136;28;20286;-75
2021/10/16 11:09:41;;;;;;;11.63;6.60;;;;;;;15.30;63.70;99785.31;5092433;28;20211;-73
2021/10/16 11:12:10;;;;;;;6.13;5.00;;;;;;;15.56;61.41;99779.81;5092239;28;20202;-73
2021/10/16 11:14:39;;;;;;;4.95;4.30;;;;;;;16.18;59.96;99782.22;5092120;28;20280;-72
2021/10/16 11:17:08;;;;;;;5.40;4.90;;;;;;;16.65;58.72;99774.88;5092781;28;20199;-72
2021/10/16 11:19:52;;;;;;;4.70;4.30;;;;;;;15.97;58.87;99778.50;5092208;28;20190;-74
2021/10/16 11:22:19;;;;;;;4.90;4.45;;;;;;;15.91;59.92;99768.97;5092591;28;20199;-73
2021/10/16 11:24:46;;;;;;;5.57;5.07;;;;;;;16.32;58.60;99767.56;5092778;28;20184;-73
2021/10/16 11:27:13;;;;;;;6.40;5.55;;;;;;;16.56;57.73;99770.19;5092791;28;20196;-73
2021/10/16 11:29:41;;;;;;;7.50;6.47;;;;;;;16.79;57.85;99779.22;5092612;28;20246;-73
2021/10/16 11:32:16;;;;;;;5.95;4.78;;;;;;;16.53;57.24;99769.53;5092675;28;20207;-72
2021/10/16 11:34:58;;;;;;;8.18;7.38;;;;;;;16.50;57.29;99769.81;5093041;28;20231;-71
2021/10/16 11:37:44;;;;;;;4.78;4.38;;;;;;;16.43;57.13;99770.28;5092720;28;20190;-72